sensor_id;sensor_type;location;lat;lon;timestamp;temperature;humidity
23116;DHT22;11727;52.134;5.052;2023-03-23T00:01:54;11.90;99.90
23116;DHT22;11727;52.134;5.052;2023-03-23T00:04:20;11.90;99.90
23116;DHT22;11727;52.134;5.052;2023-03-23T00:06:46;11.90;99.90
23116;DHT22;11727;52.134;5.052;2023-03-23T00:09:13;11.90;99.90
23116;DHT22;11727;52.134;5.052;2023-03-23T00:11:41;12.00;99.90
23116;DHT22;11727;52.134;5.052;2023-03-23T00:14:07;11.90;99.90
23116;DHT22;11727;52.134;5.052;2023-03-23T00:16:40;12.00;99.90
23116;DHT22;11727;52.134;5.052;2023-03-23T00:19:12;12.00;99.90
23116;DHT22;11727;52.134;5.052;2023-03-23T00:21:42;12.00;99.90
23116;DHT22;11727;52.134;5.052;2023-03-23T00:24:26;11.90;99.90
23116;DHT22;11727;52.134;5.052;2023-03-23T00:26:52;11.90;99.90
23116;DHT22;11727;52.134;5.052;2023-03-23T00:29:22;11.90;99.90
23116;DHT22;11727;52.134;5.052;2023-03-23T00:31:49;11.90;99.90
23116;DHT22;11727;52.134;5.052;2023-03-23T00:34:17;11.90;99.90
23116;DHT22;11727;52.134;5.052;2023-03-23T00:36:46;11.90;99.90
23116;DHT22;11727;52.134;5.052;2023-03-23T00:39:11;11.90;99.90
23116;DHT22;11727;52.134;5.052;2023-03-23T00:41:37;11.90;99.90
23116;DHT22;11727;52.134;5.052;2023-03-23T00:44:03;12.00;99.90
23116;DHT22;11727;52.134;5.052;2023-03-23T00:46:29;12.00;99.90
23116;DHT22;11727;52.134;5.052;2023-03-23T00:48:56;12.00;99.90
23116;DHT22;11727;52.134;5.052;2023-03-23T00:51:23;12.00;99.90
23116;DHT22;11727;52.134;5.052;2023-03-23T00:53:48;11.90;99.90
23116;DHT22;11727;52.134;5.052;2023-03-23T00:56:15;12.00;99.90
23116;DHT22;11727;52.134;5.052;2023-03-23T00:58:41;12.00;99.90
23116;DHT22;11727;52.134;5.052;2023-03-23T01:01:07;12.00;99.90
23116;DHT22;11727;52.134;5.052;2023-03-23T01:03:33;12.00;99.90
23116;DHT22;11727;52.134;5.052;2023-03-23T01:06:10;12.00;99.90
23116;DHT22;11727;52.134;5.052;2023-03-23T01:08:39;12.00;99.90
23116;DHT22;11727;52.134;5.052;2023-03-23T01:11:14;12.00;99.90
23116;DHT22;11727;52.134;5.052;2023-03-23T01:13:40;12.00;99.90
23116;DHT22;11727;52.134;5.052;2023-03-23T01:16:07;12.00;99.90
23116;DHT22;11727;52.134;5.052;2023-03-23T01:18:33;12.00;99.90
23116;DHT22;11727;52.134;5.052;2023-03-23T01:21:06;12.00;99.90
23116;DHT22;11727;52.134;5.052;2023-03-23T01:23:34;12.00;99.90
23116;DHT22;11727;52.134;5.052;2023-03-23T01:26:14;12.00;99.90
23116;DHT22;11727;52.134;5.052;2023-03-23T01:28:41;12.00;99.90
23116;DHT22;11727;52.134;5.052;2023-03-23T01:31:09;12.00;99.90
23116;DHT22;11727;52.134;5.052;2023-03-23T01:33:38;12.00;99.90
23116;DHT22;11727;52.134;5.052;2023-03-23T01:36:27;12.00;99.90
23116;DHT22;11727;52.134;5.052;2023-03-23T01:38:54;12.00;99.90
23116;DHT22;11727;52.134;5.052;2023-03-23T01:41:21;12.00;99.90
23116;DHT22;11727;52.134;5.052;2023-03-23T01:44:06;12.00;99.90
23116;DHT22;11727;52.134;5.052;2023-03-23T01:46:34;12.00;99.90
23116;DHT22;11727;52.134;5.052;2023-03-23T01:49:02;12.00;99.90
23116;DHT22;11727;52.134;5.052;2023-03-23T01:51:35;12.10;99.90
23116;DHT22;11727;52.134;5.052;2023-03-23T01:54:04;12.10;99.90
23116;DHT22;11727;52.134;5.052;2023-03-23T01:56:38;12.00;99.90
23116;DHT22;11727;52.134;5.052;2023-03-23T01:59:08;12.10;99.90
23116;DHT22;11727;52.134;5.052;2023-03-23T02:01:35;12.10;99.90
23116;DHT22;11727;52.134;5.052;2023-03-23T02:04:04;12.00;99.90
23116;DHT22;11727;52.134;5.052;2023-03-23T02:06:30;12.10;99.90
23116;DHT22;11727;52.134;5.052;2023-03-23T02:08:57;12.00;99.90
23116;DHT22;11727;52.134;5.052;2023-03-23T02:11:23;12.10;99.90
23116;DHT22;11727;52.134;5.052;2023-03-23T02:13:49;12.10;99.90
23116;DHT22;11727;52.134;5.052;2023-03-23T02:16:21;12.10;99.90
23116;DHT22;11727;52.134;5.052;2023-03-23T02:18:56;12.10;99.90
23116;DHT22;11727;52.134;5.052;2023-03-23T02:21:52;12.10;99.90
23116;DHT22;11727;52.134;5.052;2023-03-23T02:24:54;12.10;99.90
23116;DHT22;11727;52.134;5.052;2023-03-23T02:30:37;12.20;99.90
23116;DHT22;11727;52.134;5.052;2023-03-23T02:33:24;12.20;99.90
23116;DHT22;11727;52.134;5.052;2023-03-23T02:41:20;12.20;99.90
23116;DHT22;11727;52.134;5.052;2023-03-23T02:43:47;12.20;99.90
23116;DHT22;11727;52.134;5.052;2023-03-23T02:46:14;12.20;99.90
23116;DHT22;11727;52.134;5.052;2023-03-23T02:48:42;12.30;99.90
23116;DHT22;11727;52.134;5.052;2023-03-23T02:51:09;12.30;99.90
23116;DHT22;11727;52.134;5.052;2023-03-23T02:53:39;12.40;99.90
23116;DHT22;11727;52.134;5.052;2023-03-23T02:56:06;12.40;99.90
23116;DHT22;11727;52.134;5.052;2023-03-23T02:58:33;12.40;99.90
23116;DHT22;11727;52.134;5.052;2023-03-23T03:00:58;12.40;99.90
23116;DHT22;11727;52.134;5.052;2023-03-23T03:03:28;12.40;99.90
23116;DHT22;11727;52.134;5.052;2023-03-23T03:06:08;12.40;99.90
23116;DHT22;11727;52.134;5.052;2023-03-23T03:08:52;12.40;99.90
23116;DHT22;11727;52.134;5.052;2023-03-23T03:11:21;12.40;99.90
23116;DHT22;11727;52.134;5.052;2023-03-23T03:13:59;12.40;99.90
23116;DHT22;11727;52.134;5.052;2023-03-23T03:21:33;12.40;99.90
23116;DHT22;11727;52.134;5.052;2023-03-23T03:24:03;12.40;99.90
23116;DHT22;11727;52.134;5.052;2023-03-23T03:26:30;12.40;99.90
23116;DHT22;11727;52.134;5.052;2023-03-23T03:28:57;12.50;99.90
23116;DHT22;11727;52.134;5.052;2023-03-23T03:31:38;12.50;99.90
23116;DHT22;11727;52.134;5.052;2023-03-23T03:34:05;12.50;99.90
23116;DHT22;11727;52.134;5.052;2023-03-23T03:36:33;12.50;99.90
23116;DHT22;11727;52.134;5.052;2023-03-23T03:39:08;12.50;99.90
23116;DHT22;11727;52.134;5.052;2023-03-23T03:41:35;12.50;99.90
23116;DHT22;11727;52.134;5.052;2023-03-23T03:44:02;12.50;99.90
23116;DHT22;11727;52.134;5.052;2023-03-23T03:46:28;12.50;99.90
23116;DHT22;11727;52.134;5.052;2023-03-23T03:48:59;12.40;99.90
23116;DHT22;11727;52.134;5.052;2023-03-23T03:51:27;12.30;99.90
23116;DHT22;11727;52.134;5.052;2023-03-23T03:53:52;12.10;99.90
23116;DHT22;11727;52.134;5.052;2023-03-23T03:56:18;12.10;99.90
23116;DHT22;11727;52.134;5.052;2023-03-23T03:58:45;12.00;99.90
23116;DHT22;11727;52.134;5.052;2023-03-23T04:01:11;12.00;99.90
23116;DHT22;11727;52.134;5.052;2023-03-23T04:03:37;11.90;99.90
23116;DHT22;11727;52.134;5.052;2023-03-23T04:06:04;11.90;99.90
23116;DHT22;11727;52.134;5.052;2023-03-23T04:08:30;11.70;99.90
23116;DHT22;11727;52.134;5.052;2023-03-23T04:10:55;11.70;99.90
23116;DHT22;11727;52.134;5.052;2023-03-23T04:13:21;11.70;99.90
23116;DHT22;11727;52.134;5.052;2023-03-23T04:15:47;11.60;99.90
23116;DHT22;11727;52.134;5.052;2023-03-23T04:18:14;11.60;99.90
23116;DHT22;11727;52.134;5.052;2023-03-23T04:20:43;11.60;99.90
23116;DHT22;11727;52.134;5.052;2023-03-23T04:23:10;11.60;99.90
23116;DHT22;11727;52.134;5.052;2023-03-23T04:25:36;11.60;99.90
23116;DHT22;11727;52.134;5.052;2023-03-23T04:28:02;11.60;99.90
23116;DHT22;11727;52.134;5.052;2023-03-23T04:30:28;11.60;99.90
23116;DHT22;11727;52.134;5.052;2023-03-23T04:32:56;11.70;99.90
23116;DHT22;11727;52.134;5.052;2023-03-23T04:35:24;11.60;99.90
23116;DHT22;11727;52.134;5.052;2023-03-23T04:37:55;11.70;99.90
23116;DHT22;11727;52.134;5.052;2023-03-23T04:40:21;11.80;99.90
23116;DHT22;11727;52.134;5.052;2023-03-23T04:42:47;11.80;99.90
23116;DHT22;11727;52.134;5.052;2023-03-23T04:45:16;11.80;99.90
23116;DHT22;11727;52.134;5.052;2023-03-23T04:47:47;11.80;99.90
23116;DHT22;11727;52.134;5.052;2023-03-23T04:50:20;11.80;99.90
23116;DHT22;11727;52.134;5.052;2023-03-23T04:52:47;11.80;99.90
23116;DHT22;11727;52.134;5.052;2023-03-23T04:55:13;11.80;99.90
23116;DHT22;11727;52.134;5.052;2023-03-23T04:57:39;11.80;99.90
23116;DHT22;11727;52.134;5.052;2023-03-23T05:00:06;11.60;99.90
23116;DHT22;11727;52.134;5.052;2023-03-23T05:02:38;11.50;99.90
23116;DHT22;11727;52.134;5.052;2023-03-23T05:05:07;11.30;99.90
23116;DHT22;11727;52.134;5.052;2023-03-23T05:07:33;11.20;99.90
23116;DHT22;11727;52.134;5.052;2023-03-23T05:09:59;11.20;99.90
23116;DHT22;11727;52.134;5.052;2023-03-23T05:12:25;11.10;99.90
23116;DHT22;11727;52.134;5.052;2023-03-23T05:14:52;11.10;99.90
23116;DHT22;11727;52.134;5.052;2023-03-23T05:17:17;11.10;99.90
23116;DHT22;11727;52.134;5.052;2023-03-23T05:19:44;11.00;99.90
23116;DHT22;11727;52.134;5.052;2023-03-23T05:22:15;11.00;99.90
23116;DHT22;11727;52.134;5.052;2023-03-23T05:24:41;11.00;99.90
23116;DHT22;11727;52.134;5.052;2023-03-23T05:27:09;10.90;99.90
23116;DHT22;11727;52.134;5.052;2023-03-23T05:29:35;10.80;99.90
23116;DHT22;11727;52.134;5.052;2023-03-23T05:32:04;10.80;99.90
23116;DHT22;11727;52.134;5.052;2023-03-23T05:34:31;10.70;99.90
23116;DHT22;11727;52.134;5.052;2023-03-23T05:36:59;10.70;99.90
23116;DHT22;11727;52.134;5.052;2023-03-23T05:39:25;10.70;99.90
23116;DHT22;11727;52.134;5.052;2023-03-23T05:41:50;10.70;99.90
23116;DHT22;11727;52.134;5.052;2023-03-23T05:44:16;10.70;99.90
23116;DHT22;11727;52.134;5.052;2023-03-23T05:46:43;10.70;99.90
23116;DHT22;11727;52.134;5.052;2023-03-23T05:49:09;10.70;99.90
23116;DHT22;11727;52.134;5.052;2023-03-23T05:51:34;10.70;99.90
23116;DHT22;11727;52.134;5.052;2023-03-23T05:54:01;10.80;99.90
23116;DHT22;11727;52.134;5.052;2023-03-23T05:56:27;10.70;99.90
23116;DHT22;11727;52.134;5.052;2023-03-23T05:58:54;10.70;99.90
23116;DHT22;11727;52.134;5.052;2023-03-23T06:01:20;10.70;99.90
23116;DHT22;11727;52.134;5.052;2023-03-23T06:03:46;10.70;99.90
23116;DHT22;11727;52.134;5.052;2023-03-23T06:06:12;10.70;99.90
23116;DHT22;11727;52.134;5.052;2023-03-23T06:08:37;10.70;99.90
23116;DHT22;11727;52.134;5.052;2023-03-23T06:11:04;10.70;99.90
23116;DHT22;11727;52.134;5.052;2023-03-23T06:13:30;10.70;99.90
23116;DHT22;11727;52.134;5.052;2023-03-23T06:15:56;10.70;99.90
23116;DHT22;11727;52.134;5.052;2023-03-23T06:18:23;10.80;99.90
23116;DHT22;11727;52.134;5.052;2023-03-23T06:20:49;10.70;99.90
23116;DHT22;11727;52.134;5.052;2023-03-23T06:23:16;10.70;99.90
23116;DHT22;11727;52.134;5.052;2023-03-23T06:25:42;10.70;99.90
23116;DHT22;11727;52.134;5.052;2023-03-23T06:28:07;10.70;99.90
23116;DHT22;11727;52.134;5.052;2023-03-23T06:30:35;10.70;99.90
23116;DHT22;11727;52.134;5.052;2023-03-23T06:33:01;10.70;99.90
23116;DHT22;11727;52.134;5.052;2023-03-23T06:35:33;10.70;99.90
23116;DHT22;11727;52.134;5.052;2023-03-23T06:37:59;10.70;99.90
23116;DHT22;11727;52.134;5.052;2023-03-23T06:40:27;10.70;99.90
23116;DHT22;11727;52.134;5.052;2023-03-23T06:42:54;10.70;99.90
23116;DHT22;11727;52.134;5.052;2023-03-23T06:45:19;10.70;99.90
23116;DHT22;11727;52.134;5.052;2023-03-23T06:47:45;10.70;99.90
23116;DHT22;11727;52.134;5.052;2023-03-23T06:50:15;10.80;99.90
23116;DHT22;11727;52.134;5.052;2023-03-23T06:52:41;10.80;99.90
23116;DHT22;11727;52.134;5.052;2023-03-23T06:55:10;10.80;99.90
23116;DHT22;11727;52.134;5.052;2023-03-23T06:57:36;10.80;99.90
23116;DHT22;11727;52.134;5.052;2023-03-23T07:00:03;10.90;99.90
23116;DHT22;11727;52.134;5.052;2023-03-23T07:02:31;10.90;99.90
23116;DHT22;11727;52.134;5.052;2023-03-23T07:04:56;10.90;99.90
23116;DHT22;11727;52.134;5.052;2023-03-23T07:07:23;10.90;99.90
23116;DHT22;11727;52.134;5.052;2023-03-23T07:09:48;11.00;99.90
23116;DHT22;11727;52.134;5.052;2023-03-23T07:12:14;11.00;99.90
23116;DHT22;11727;52.134;5.052;2023-03-23T07:14:40;11.00;99.90
23116;DHT22;11727;52.134;5.052;2023-03-23T07:17:05;11.00;99.90
23116;DHT22;11727;52.134;5.052;2023-03-23T07:19:33;11.00;99.90
23116;DHT22;11727;52.134;5.052;2023-03-23T07:21:58;11.10;99.90
23116;DHT22;11727;52.134;5.052;2023-03-23T07:24:24;11.10;99.90
23116;DHT22;11727;52.134;5.052;2023-03-23T07:26:50;11.20;99.90
23116;DHT22;11727;52.134;5.052;2023-03-23T07:29:16;11.20;99.90
23116;DHT22;11727;52.134;5.052;2023-03-23T07:31:42;11.20;99.90
23116;DHT22;11727;52.134;5.052;2023-03-23T07:34:08;11.20;99.90
23116;DHT22;11727;52.134;5.052;2023-03-23T07:36:34;11.20;99.90
23116;DHT22;11727;52.134;5.052;2023-03-23T07:39:03;11.20;99.90
23116;DHT22;11727;52.134;5.052;2023-03-23T07:41:31;11.10;99.90
23116;DHT22;11727;52.134;5.052;2023-03-23T07:43:57;11.20;99.90
23116;DHT22;11727;52.134;5.052;2023-03-23T07:46:22;11.20;99.90
23116;DHT22;11727;52.134;5.052;2023-03-23T07:48:48;11.20;99.90
23116;DHT22;11727;52.134;5.052;2023-03-23T07:51:14;11.30;99.90
23116;DHT22;11727;52.134;5.052;2023-03-23T07:53:42;11.30;99.90
23116;DHT22;11727;52.134;5.052;2023-03-23T07:56:13;11.30;99.90
23116;DHT22;11727;52.134;5.052;2023-03-23T07:58:41;11.30;99.90
23116;DHT22;11727;52.134;5.052;2023-03-23T08:01:06;11.30;99.90
23116;DHT22;11727;52.134;5.052;2023-03-23T08:03:33;11.40;99.90
23116;DHT22;11727;52.134;5.052;2023-03-23T08:05:59;11.40;99.90
23116;DHT22;11727;52.134;5.052;2023-03-23T08:08:25;11.50;99.90
23116;DHT22;11727;52.134;5.052;2023-03-23T08:10:51;11.50;99.90
23116;DHT22;11727;52.134;5.052;2023-03-23T08:13:17;11.50;99.90
23116;DHT22;11727;52.134;5.052;2023-03-23T08:15:43;11.50;99.90
23116;DHT22;11727;52.134;5.052;2023-03-23T08:18:09;11.50;99.90
23116;DHT22;11727;52.134;5.052;2023-03-23T08:20:35;11.60;99.90
23116;DHT22;11727;52.134;5.052;2023-03-23T08:23:02;11.60;99.90
23116;DHT22;11727;52.134;5.052;2023-03-23T08:25:28;11.60;99.90
23116;DHT22;11727;52.134;5.052;2023-03-23T08:27:57;11.60;99.90
23116;DHT22;11727;52.134;5.052;2023-03-23T08:30:23;11.70;99.90
23116;DHT22;11727;52.134;5.052;2023-03-23T08:32:50;11.70;99.90
23116;DHT22;11727;52.134;5.052;2023-03-23T08:35:18;11.80;99.90
23116;DHT22;11727;52.134;5.052;2023-03-23T08:37:44;11.80;99.90
23116;DHT22;11727;52.134;5.052;2023-03-23T08:40:13;11.80;99.90
23116;DHT22;11727;52.134;5.052;2023-03-23T08:42:41;11.80;99.90
23116;DHT22;11727;52.134;5.052;2023-03-23T08:45:09;11.90;99.90
23116;DHT22;11727;52.134;5.052;2023-03-23T08:47:36;12.10;99.90
23116;DHT22;11727;52.134;5.052;2023-03-23T08:50:03;12.40;99.90
23116;DHT22;11727;52.134;5.052;2023-03-23T08:52:29;12.60;99.90
23116;DHT22;11727;52.134;5.052;2023-03-23T08:54:55;12.80;99.90
23116;DHT22;11727;52.134;5.052;2023-03-23T08:57:23;13.00;99.90
23116;DHT22;11727;52.134;5.052;2023-03-23T08:59:48;13.10;99.90
23116;DHT22;11727;52.134;5.052;2023-03-23T09:02:14;12.90;99.90
23116;DHT22;11727;52.134;5.052;2023-03-23T09:04:40;12.70;99.90
23116;DHT22;11727;52.134;5.052;2023-03-23T09:07:11;12.60;99.90
23116;DHT22;11727;52.134;5.052;2023-03-23T09:09:38;12.50;99.90
23116;DHT22;11727;52.134;5.052;2023-03-23T09:12:06;12.50;99.90
23116;DHT22;11727;52.134;5.052;2023-03-23T09:14:32;12.80;99.90
23116;DHT22;11727;52.134;5.052;2023-03-23T09:16:57;13.10;99.90
23116;DHT22;11727;52.134;5.052;2023-03-23T09:19:23;13.30;99.90
23116;DHT22;11727;52.134;5.052;2023-03-23T09:21:49;13.40;99.90
23116;DHT22;11727;52.134;5.052;2023-03-23T09:24:15;13.50;99.90
23116;DHT22;11727;52.134;5.052;2023-03-23T09:26:41;13.70;99.90
23116;DHT22;11727;52.134;5.052;2023-03-23T09:29:06;13.70;99.90
23116;DHT22;11727;52.134;5.052;2023-03-23T09:31:32;13.70;99.90
23116;DHT22;11727;52.134;5.052;2023-03-23T09:33:58;13.90;99.90
23116;DHT22;11727;52.134;5.052;2023-03-23T09:36:25;14.00;99.90
23116;DHT22;11727;52.134;5.052;2023-03-23T09:38:57;13.90;99.90
23116;DHT22;11727;52.134;5.052;2023-03-23T09:47:04;13.50;99.90
23116;DHT22;11727;52.134;5.052;2023-03-23T09:49:43;13.40;99.90
23116;DHT22;11727;52.134;5.052;2023-03-23T09:52:18;13.30;99.90
23116;DHT22;11727;52.134;5.052;2023-03-23T09:54:48;13.30;99.90
23116;DHT22;11727;52.134;5.052;2023-03-23T09:57:37;13.30;99.90
23116;DHT22;11727;52.134;5.052;2023-03-23T10:00:19;13.30;99.90
23116;DHT22;11727;52.134;5.052;2023-03-23T10:03:00;13.30;99.90
23116;DHT22;11727;52.134;5.052;2023-03-23T10:05:36;13.30;99.90
23116;DHT22;11727;52.134;5.052;2023-03-23T10:08:14;13.40;99.90
23116;DHT22;11727;52.134;5.052;2023-03-23T10:10:54;13.60;99.90
23116;DHT22;11727;52.134;5.052;2023-03-23T10:16:07;14.00;99.90
23116;DHT22;11727;52.134;5.052;2023-03-23T10:18:44;14.20;99.90
23116;DHT22;11727;52.134;5.052;2023-03-23T10:21:12;14.40;99.90
23116;DHT22;11727;52.134;5.052;2023-03-23T10:29:18;14.70;99.90
23116;DHT22;11727;52.134;5.052;2023-03-23T10:32:08;14.80;99.90
23116;DHT22;11727;52.134;5.052;2023-03-23T10:34:42;14.80;99.90
23116;DHT22;11727;52.134;5.052;2023-03-23T10:37:27;15.10;99.90
23116;DHT22;11727;52.134;5.052;2023-03-23T10:39:57;14.90;99.90
23116;DHT22;11727;52.134;5.052;2023-03-23T10:42:32;14.90;99.90
23116;DHT22;11727;52.134;5.052;2023-03-23T10:45:19;14.90;99.90
23116;DHT22;11727;52.134;5.052;2023-03-23T10:47:52;15.10;99.90
23116;DHT22;11727;52.134;5.052;2023-03-23T10:50:24;15.20;99.90
23116;DHT22;11727;52.134;5.052;2023-03-23T10:52:52;15.20;99.90
23116;DHT22;11727;52.134;5.052;2023-03-23T10:55:21;15.00;99.90
23116;DHT22;11727;52.134;5.052;2023-03-23T11:00:51;14.70;99.90
23116;DHT22;11727;52.134;5.052;2023-03-23T11:05:48;15.20;99.90
23116;DHT22;11727;52.134;5.052;2023-03-23T11:08:46;15.10;99.90
23116;DHT22;11727;52.134;5.052;2023-03-23T11:11:19;14.80;99.90
23116;DHT22;11727;52.134;5.052;2023-03-23T11:13:49;14.70;99.90
23116;DHT22;11727;52.134;5.052;2023-03-23T11:18:53;15.70;99.90
23116;DHT22;11727;52.134;5.052;2023-03-23T11:21:22;15.80;99.90
23116;DHT22;11727;52.134;5.052;2023-03-23T11:23:54;16.10;99.90
23116;DHT22;11727;52.134;5.052;2023-03-23T11:26:31;16.10;99.90
23116;DHT22;11727;52.134;5.052;2023-03-23T11:29:05;15.70;99.90
23116;DHT22;11727;52.134;5.052;2023-03-23T11:31:39;15.60;99.90
23116;DHT22;11727;52.134;5.052;2023-03-23T11:34:14;15.70;99.90
23116;DHT22;11727;52.134;5.052;2023-03-23T11:36:46;15.90;99.90
23116;DHT22;11727;52.134;5.052;2023-03-23T11:39:28;16.00;99.90
23116;DHT22;11727;52.134;5.052;2023-03-23T11:41:56;15.80;99.90
23116;DHT22;11727;52.134;5.052;2023-03-23T11:44:23;15.60;99.90
23116;DHT22;11727;52.134;5.052;2023-03-23T11:52:42;15.10;99.90
23116;DHT22;11727;52.134;5.052;2023-03-23T11:55:13;15.00;99.90
23116;DHT22;11727;52.134;5.052;2023-03-23T11:57:40;15.00;99.90
23116;DHT22;11727;52.134;5.052;2023-03-23T12:00:18;15.20;99.90
23116;DHT22;11727;52.134;5.052;2023-03-23T12:02:59;15.30;99.90
23116;DHT22;11727;52.134;5.052;2023-03-23T12:05:49;15.10;99.90
23116;DHT22;11727;52.134;5.052;2023-03-23T12:11:27;15.60;99.90
23116;DHT22;11727;52.134;5.052;2023-03-23T12:19:59;16.20;99.90
23116;DHT22;11727;52.134;5.052;2023-03-23T12:28:33;15.80;99.90
23116;DHT22;11727;52.134;5.052;2023-03-23T12:33:45;15.20;99.90
23116;DHT22;11727;52.134;5.052;2023-03-23T12:36:34;15.20;99.90
23116;DHT22;11727;52.134;5.052;2023-03-23T12:44:54;15.20;99.90
23116;DHT22;11727;52.134;5.052;2023-03-23T12:47:32;15.40;99.90
23116;DHT22;11727;52.134;5.052;2023-03-23T12:50:05;15.30;99.90
23116;DHT22;11727;52.134;5.052;2023-03-23T12:52:56;15.30;99.90
23116;DHT22;11727;52.134;5.052;2023-03-23T12:58:24;15.30;99.90
23116;DHT22;11727;52.134;5.052;2023-03-23T13:01:07;15.60;99.90
23116;DHT22;11727;52.134;5.052;2023-03-23T13:03:57;15.60;99.90
23116;DHT22;11727;52.134;5.052;2023-03-23T13:06:31;15.50;99.90
23116;DHT22;11727;52.134;5.052;2023-03-23T13:11:40;15.30;99.90
23116;DHT22;11727;52.134;5.052;2023-03-23T13:14:18;15.20;99.90
23116;DHT22;11727;52.134;5.052;2023-03-23T13:22:41;15.10;99.90
23116;DHT22;11727;52.134;5.052;2023-03-23T13:25:15;15.10;99.90
23116;DHT22;11727;52.134;5.052;2023-03-23T13:27:42;15.30;99.90
23116;DHT22;11727;52.134;5.052;2023-03-23T13:30:20;15.70;99.90
23116;DHT22;11727;52.134;5.052;2023-03-23T13:32:50;15.90;99.90
23116;DHT22;11727;52.134;5.052;2023-03-23T13:35:18;16.10;99.90
23116;DHT22;11727;52.134;5.052;2023-03-23T13:37:49;16.50;99.90
23116;DHT22;11727;52.134;5.052;2023-03-23T13:40:30;16.70;99.90
23116;DHT22;11727;52.134;5.052;2023-03-23T13:43:00;16.90;99.90
23116;DHT22;11727;52.134;5.052;2023-03-23T13:48:18;17.10;99.90
23116;DHT22;11727;52.134;5.052;2023-03-23T13:53:31;16.90;99.90
23116;DHT22;11727;52.134;5.052;2023-03-23T13:56:21;16.70;99.90
23116;DHT22;11727;52.134;5.052;2023-03-23T13:59:15;16.30;99.90
23116;DHT22;11727;52.134;5.052;2023-03-23T14:01:41;15.90;99.90
23116;DHT22;11727;52.134;5.052;2023-03-23T14:04:15;15.70;99.90
23116;DHT22;11727;52.134;5.052;2023-03-23T14:06:41;15.80;99.90
23116;DHT22;11727;52.134;5.052;2023-03-23T14:09:18;15.90;99.90
23116;DHT22;11727;52.134;5.052;2023-03-23T14:11:55;16.00;99.90
23116;DHT22;11727;52.134;5.052;2023-03-23T14:14:38;16.30;99.90
23116;DHT22;11727;52.134;5.052;2023-03-23T14:17:21;16.40;99.90
23116;DHT22;11727;52.134;5.052;2023-03-23T14:19:50;16.60;99.90
23116;DHT22;11727;52.134;5.052;2023-03-23T14:22:23;16.50;99.90
23116;DHT22;11727;52.134;5.052;2023-03-23T14:24:49;16.60;99.90
23116;DHT22;11727;52.134;5.052;2023-03-23T14:27:19;16.50;99.90
23116;DHT22;11727;52.134;5.052;2023-03-23T14:29:45;16.50;99.90
23116;DHT22;11727;52.134;5.052;2023-03-23T14:32:15;16.60;99.90
23116;DHT22;11727;52.134;5.052;2023-03-23T14:34:42;16.60;99.90
23116;DHT22;11727;52.134;5.052;2023-03-23T14:37:13;16.50;99.90
23116;DHT22;11727;52.134;5.052;2023-03-23T14:39:44;16.60;99.90
23116;DHT22;11727;52.134;5.052;2023-03-23T14:42:13;16.80;99.90
23116;DHT22;11727;52.134;5.052;2023-03-23T14:44:44;16.60;99.90
23116;DHT22;11727;52.134;5.052;2023-03-23T14:47:21;16.70;99.90
23116;DHT22;11727;52.134;5.052;2023-03-23T14:49:47;17.00;99.90
23116;DHT22;11727;52.134;5.052;2023-03-23T14:52:24;17.30;99.90
23116;DHT22;11727;52.134;5.052;2023-03-23T14:54:50;17.40;99.90
23116;DHT22;11727;52.134;5.052;2023-03-23T14:59:51;17.60;99.90
23116;DHT22;11727;52.134;5.052;2023-03-23T15:02:24;17.60;99.90
23116;DHT22;11727;52.134;5.052;2023-03-23T15:05:01;17.70;99.90
23116;DHT22;11727;52.134;5.052;2023-03-23T15:07:33;17.50;99.90
23116;DHT22;11727;52.134;5.052;2023-03-23T15:09:59;17.40;99.90
23116;DHT22;11727;52.134;5.052;2023-03-23T15:12:29;17.50;99.90
23116;DHT22;11727;52.134;5.052;2023-03-23T15:14:59;17.60;99.90
23116;DHT22;11727;52.134;5.052;2023-03-23T15:17:30;17.50;99.90
23116;DHT22;11727;52.134;5.052;2023-03-23T15:19:57;17.60;99.90
23116;DHT22;11727;52.134;5.052;2023-03-23T15:22:27;17.20;99.90
23116;DHT22;11727;52.134;5.052;2023-03-23T15:25:30;17.00;99.90
23116;DHT22;11727;52.134;5.052;2023-03-23T15:28:16;16.60;99.90
23116;DHT22;11727;52.134;5.052;2023-03-23T15:30:57;16.30;99.90
23116;DHT22;11727;52.134;5.052;2023-03-23T15:33:25;16.10;99.90
23116;DHT22;11727;52.134;5.052;2023-03-23T15:35:56;16.20;99.90
23116;DHT22;11727;52.134;5.052;2023-03-23T15:38:24;16.30;99.90
23116;DHT22;11727;52.134;5.052;2023-03-23T15:40:53;16.30;99.90
23116;DHT22;11727;52.134;5.052;2023-03-23T15:43:21;16.30;99.90
23116;DHT22;11727;52.134;5.052;2023-03-23T15:46:03;16.30;99.90
23116;DHT22;11727;52.134;5.052;2023-03-23T15:48:45;16.30;99.90
23116;DHT22;11727;52.134;5.052;2023-03-23T15:51:10;16.20;99.90
23116;DHT22;11727;52.134;5.052;2023-03-23T15:53:38;16.10;99.90
23116;DHT22;11727;52.134;5.052;2023-03-23T15:56:06;16.10;99.90
23116;DHT22;11727;52.134;5.052;2023-03-23T15:58:33;16.10;99.90
23116;DHT22;11727;52.134;5.052;2023-03-23T16:01:02;16.10;99.90
23116;DHT22;11727;52.134;5.052;2023-03-23T16:03:37;16.10;99.90
23116;DHT22;11727;52.134;5.052;2023-03-23T16:06:03;16.10;99.90
23116;DHT22;11727;52.134;5.052;2023-03-23T16:08:29;16.10;99.90
23116;DHT22;11727;52.134;5.052;2023-03-23T16:10:54;16.00;99.90
23116;DHT22;11727;52.134;5.052;2023-03-23T16:13:20;16.10;99.90
23116;DHT22;11727;52.134;5.052;2023-03-23T16:15:47;16.00;99.90
23116;DHT22;11727;52.134;5.052;2023-03-23T16:18:21;15.90;99.90
23116;DHT22;11727;52.134;5.052;2023-03-23T16:20:48;15.80;99.90
23116;DHT22;11727;52.134;5.052;2023-03-23T16:23:14;15.70;99.90
23116;DHT22;11727;52.134;5.052;2023-03-23T16:25:40;15.60;99.90
23116;DHT22;11727;52.134;5.052;2023-03-23T16:28:12;15.50;99.90
23116;DHT22;11727;52.134;5.052;2023-03-23T16:30:41;15.50;99.90
23116;DHT22;11727;52.134;5.052;2023-03-23T16:33:07;15.50;99.90
23116;DHT22;11727;52.134;5.052;2023-03-23T16:35:48;15.50;99.90
23116;DHT22;11727;52.134;5.052;2023-03-23T16:38:15;15.40;99.90
23116;DHT22;11727;52.134;5.052;2023-03-23T16:40:45;15.40;99.90
23116;DHT22;11727;52.134;5.052;2023-03-23T16:43:11;15.40;99.90
23116;DHT22;11727;52.134;5.052;2023-03-23T16:45:39;15.40;99.90
23116;DHT22;11727;52.134;5.052;2023-03-23T16:48:05;15.40;99.90
23116;DHT22;11727;52.134;5.052;2023-03-23T16:50:31;15.30;99.90
23116;DHT22;11727;52.134;5.052;2023-03-23T16:52:57;15.30;99.90
23116;DHT22;11727;52.134;5.052;2023-03-23T16:55:23;15.20;99.90
23116;DHT22;11727;52.134;5.052;2023-03-23T16:57:52;15.20;99.90
23116;DHT22;11727;52.134;5.052;2023-03-23T17:00:18;15.20;99.90
23116;DHT22;11727;52.134;5.052;2023-03-23T17:02:49;15.20;99.90
23116;DHT22;11727;52.134;5.052;2023-03-23T17:05:19;15.10;99.90
23116;DHT22;11727;52.134;5.052;2023-03-23T17:07:45;15.10;99.90
23116;DHT22;11727;52.134;5.052;2023-03-23T17:10:12;15.10;99.90
23116;DHT22;11727;52.134;5.052;2023-03-23T17:12:38;15.10;99.90